sensor_id;sensor_type;location;lat;lon;timestamp;temperature;humidity
26541;DHT22;14206;50.202;10.948;2022-08-19T00:02:02;22.80;80.00
26541;DHT22;14206;50.202;10.948;2022-08-19T00:04:32;22.80;80.10
26541;DHT22;14206;50.202;10.948;2022-08-19T00:07:03;22.80;80.10
26541;DHT22;14206;50.202;10.948;2022-08-19T00:09:30;22.80;80.10
26541;DHT22;14206;50.202;10.948;2022-08-19T00:11:58;22.70;81.00
26541;DHT22;14206;50.202;10.948;2022-08-19T00:14:27;22.60;80.90
26541;DHT22;14206;50.202;10.948;2022-08-19T00:16:54;22.50;80.70
26541;DHT22;14206;50.202;10.948;2022-08-19T00:19:22;22.40;81.50
26541;DHT22;14206;50.202;10.948;2022-08-19T00:21:50;22.30;82.20
26541;DHT22;14206;50.202;10.948;2022-08-19T00:24:17;22.20;82.40
26541;DHT22;14206;50.202;10.948;2022-08-19T00:26:45;22.20;82.40
26541;DHT22;14206;50.202;10.948;2022-08-19T00:29:15;22.20;82.30
26541;DHT22;14206;50.202;10.948;2022-08-19T00:31:44;22.20;82.40
26541;DHT22;14206;50.202;10.948;2022-08-19T00:34:12;22.10;82.80
26541;DHT22;14206;50.202;10.948;2022-08-19T00:36:41;22.10;83.30
26541;DHT22;14206;50.202;10.948;2022-08-19T00:39:09;22.10;83.40
26541;DHT22;14206;50.202;10.948;2022-08-19T00:41:36;22.20;83.10
26541;DHT22;14206;50.202;10.948;2022-08-19T00:44:16;22.10;82.80
26541;DHT22;14206;50.202;10.948;2022-08-19T00:46:47;22.10;82.90
26541;DHT22;14206;50.202;10.948;2022-08-19T00:52:09;22.10;83.20
26541;DHT22;14206;50.202;10.948;2022-08-19T00:54:39;22.00;83.00
26541;DHT22;14206;50.202;10.948;2022-08-19T00:57:10;21.80;84.00
26541;DHT22;14206;50.202;10.948;2022-08-19T00:59:45;21.70;84.30
26541;DHT22;14206;50.202;10.948;2022-08-19T01:02:29;21.50;84.60
26541;DHT22;14206;50.202;10.948;2022-08-19T01:04:56;21.50;84.90
26541;DHT22;14206;50.202;10.948;2022-08-19T01:07:23;21.50;84.70
26541;DHT22;14206;50.202;10.948;2022-08-19T01:09:50;21.50;84.50
26541;DHT22;14206;50.202;10.948;2022-08-19T01:12:18;21.50;84.30
26541;DHT22;14206;50.202;10.948;2022-08-19T01:14:46;21.50;84.30
26541;DHT22;14206;50.202;10.948;2022-08-19T01:17:15;21.50;84.20
26541;DHT22;14206;50.202;10.948;2022-08-19T01:19:44;21.50;83.90
26541;DHT22;14206;50.202;10.948;2022-08-19T01:22:25;21.60;83.80
26541;DHT22;14206;50.202;10.948;2022-08-19T01:24:59;21.60;83.90
26541;DHT22;14206;50.202;10.948;2022-08-19T01:27:26;21.60;83.80
26541;DHT22;14206;50.202;10.948;2022-08-19T01:30:01;21.60;83.80
26541;DHT22;14206;50.202;10.948;2022-08-19T01:32:27;21.60;83.70
26541;DHT22;14206;50.202;10.948;2022-08-19T01:35:03;21.60;83.40
26541;DHT22;14206;50.202;10.948;2022-08-19T01:37:45;21.60;83.40
26541;DHT22;14206;50.202;10.948;2022-08-19T01:40:12;21.60;83.30
26541;DHT22;14206;50.202;10.948;2022-08-19T01:42:39;21.60;83.40
26541;DHT22;14206;50.202;10.948;2022-08-19T01:45:07;21.50;83.70
26541;DHT22;14206;50.202;10.948;2022-08-19T01:47:38;21.50;83.90
26541;DHT22;14206;50.202;10.948;2022-08-19T01:50:08;21.30;84.70
26541;DHT22;14206;50.202;10.948;2022-08-19T01:52:37;21.20;85.10
26541;DHT22;14206;50.202;10.948;2022-08-19T01:55:07;21.10;85.90
26541;DHT22;14206;50.202;10.948;2022-08-19T01:57:34;21.00;85.90
26541;DHT22;14206;50.202;10.948;2022-08-19T02:00:06;20.90;86.50
26541;DHT22;14206;50.202;10.948;2022-08-19T02:02:37;20.90;86.40
26541;DHT22;14206;50.202;10.948;2022-08-19T02:05:04;20.80;86.80
26541;DHT22;14206;50.202;10.948;2022-08-19T02:07:36;20.80;87.10
26541;DHT22;14206;50.202;10.948;2022-08-19T02:10:09;20.80;86.90
26541;DHT22;14206;50.202;10.948;2022-08-19T02:12:39;20.90;86.60
26541;DHT22;14206;50.202;10.948;2022-08-19T02:15:06;21.00;86.20
26541;DHT22;14206;50.202;10.948;2022-08-19T02:17:34;21.00;86.00
26541;DHT22;14206;50.202;10.948;2022-08-19T02:20:01;21.00;86.00
26541;DHT22;14206;50.202;10.948;2022-08-19T02:22:28;20.90;86.70
26541;DHT22;14206;50.202;10.948;2022-08-19T02:24:55;20.80;87.20
26541;DHT22;14206;50.202;10.948;2022-08-19T02:27:22;20.70;87.60
26541;DHT22;14206;50.202;10.948;2022-08-19T02:29:51;20.70;88.00
26541;DHT22;14206;50.202;10.948;2022-08-19T02:32:18;20.60;87.90
26541;DHT22;14206;50.202;10.948;2022-08-19T02:34:47;20.60;87.90
26541;DHT22;14206;50.202;10.948;2022-08-19T02:37:14;20.60;88.10
26541;DHT22;14206;50.202;10.948;2022-08-19T02:40:01;20.60;88.30
26541;DHT22;14206;50.202;10.948;2022-08-19T02:42:28;20.50;88.40
26541;DHT22;14206;50.202;10.948;2022-08-19T02:44:55;20.50;88.40
26541;DHT22;14206;50.202;10.948;2022-08-19T02:47:22;20.50;88.40
26541;DHT22;14206;50.202;10.948;2022-08-19T02:49:49;20.50;88.40
26541;DHT22;14206;50.202;10.948;2022-08-19T02:52:16;20.60;88.30
26541;DHT22;14206;50.202;10.948;2022-08-19T02:54:43;20.60;88.80
26541;DHT22;14206;50.202;10.948;2022-08-19T02:57:10;20.50;89.20
26541;DHT22;14206;50.202;10.948;2022-08-19T02:59:37;20.40;89.70
26541;DHT22;14206;50.202;10.948;2022-08-19T03:02:05;20.40;89.80
26541;DHT22;14206;50.202;10.948;2022-08-19T03:04:32;20.40;89.50
26541;DHT22;14206;50.202;10.948;2022-08-19T03:06:59;20.40;89.60
26541;DHT22;14206;50.202;10.948;2022-08-19T03:09:37;20.50;89.40
26541;DHT22;14206;50.202;10.948;2022-08-19T03:12:05;20.50;89.20
26541;DHT22;14206;50.202;10.948;2022-08-19T03:14:33;20.50;89.50
26541;DHT22;14206;50.202;10.948;2022-08-19T03:17:00;20.50;89.80
26541;DHT22;14206;50.202;10.948;2022-08-19T03:19:27;20.60;89.40
26541;DHT22;14206;50.202;10.948;2022-08-19T03:21:54;20.70;89.20
26541;DHT22;14206;50.202;10.948;2022-08-19T03:24:22;20.70;89.00
26541;DHT22;14206;50.202;10.948;2022-08-19T03:26:52;20.70;89.00
26541;DHT22;14206;50.202;10.948;2022-08-19T03:29:19;20.80;88.70
26541;DHT22;14206;50.202;10.948;2022-08-19T03:32:00;20.80;88.50
26541;DHT22;14206;50.202;10.948;2022-08-19T03:34:32;20.90;88.40
26541;DHT22;14206;50.202;10.948;2022-08-19T03:37:05;20.90;88.10
26541;DHT22;14206;50.202;10.948;2022-08-19T03:39:37;20.90;88.30
26541;DHT22;14206;50.202;10.948;2022-08-19T03:42:04;21.00;88.20
26541;DHT22;14206;50.202;10.948;2022-08-19T03:44:51;21.00;88.00
26541;DHT22;14206;50.202;10.948;2022-08-19T03:47:19;21.10;87.90
26541;DHT22;14206;50.202;10.948;2022-08-19T03:49:46;21.10;87.90
26541;DHT22;14206;50.202;10.948;2022-08-19T03:52:13;21.10;88.30
26541;DHT22;14206;50.202;10.948;2022-08-19T03:54:40;21.10;88.20
26541;DHT22;14206;50.202;10.948;2022-08-19T03:57:07;21.20;87.80
26541;DHT22;14206;50.202;10.948;2022-08-19T03:59:36;21.20;87.80
26541;DHT22;14206;50.202;10.948;2022-08-19T04:02:09;21.30;87.40
26541;DHT22;14206;50.202;10.948;2022-08-19T04:04:38;21.40;87.10
26541;DHT22;14206;50.202;10.948;2022-08-19T04:07:05;21.50;86.90
26541;DHT22;14206;50.202;10.948;2022-08-19T04:09:34;21.50;87.10
26541;DHT22;14206;50.202;10.948;2022-08-19T04:12:01;21.50;86.70
26541;DHT22;14206;50.202;10.948;2022-08-19T04:14:29;21.60;86.40
26541;DHT22;14206;50.202;10.948;2022-08-19T04:17:01;21.50;86.70
26541;DHT22;14206;50.202;10.948;2022-08-19T04:19:30;21.50;86.70
26541;DHT22;14206;50.202;10.948;2022-08-19T04:21:58;21.50;86.90
26541;DHT22;14206;50.202;10.948;2022-08-19T04:24:25;21.50;86.80
26541;DHT22;14206;50.202;10.948;2022-08-19T04:26:52;21.50;86.50
26541;DHT22;14206;50.202;10.948;2022-08-19T04:29:23;21.50;86.60
26541;DHT22;14206;50.202;10.948;2022-08-19T04:31:54;21.50;86.40
26541;DHT22;14206;50.202;10.948;2022-08-19T04:34:24;21.50;86.70
26541;DHT22;14206;50.202;10.948;2022-08-19T04:36:52;21.50;86.80
26541;DHT22;14206;50.202;10.948;2022-08-19T04:39:23;21.40;86.60
26541;DHT22;14206;50.202;10.948;2022-08-19T04:42:11;21.40;86.40
26541;DHT22;14206;50.202;10.948;2022-08-19T04:44:57;21.40;86.30
26541;DHT22;14206;50.202;10.948;2022-08-19T04:47:25;21.50;86.40
26541;DHT22;14206;50.202;10.948;2022-08-19T04:50:13;21.50;86.10
26541;DHT22;14206;50.202;10.948;2022-08-19T04:52:40;21.50;85.80
26541;DHT22;14206;50.202;10.948;2022-08-19T04:55:11;21.50;85.50
26541;DHT22;14206;50.202;10.948;2022-08-19T04:57:38;21.60;85.60
26541;DHT22;14206;50.202;10.948;2022-08-19T05:00:10;21.60;85.80
26541;DHT22;14206;50.202;10.948;2022-08-19T05:02:38;21.50;85.90
26541;DHT22;14206;50.202;10.948;2022-08-19T05:05:05;21.50;85.80
26541;DHT22;14206;50.202;10.948;2022-08-19T05:07:33;21.50;85.80
26541;DHT22;14206;50.202;10.948;2022-08-19T05:10:00;21.50;85.90
26541;DHT22;14206;50.202;10.948;2022-08-19T05:12:27;21.50;86.00
26541;DHT22;14206;50.202;10.948;2022-08-19T05:14:57;21.50;86.30
26541;DHT22;14206;50.202;10.948;2022-08-19T05:17:25;21.50;86.20
26541;DHT22;14206;50.202;10.948;2022-08-19T05:19:56;21.50;86.30
26541;DHT22;14206;50.202;10.948;2022-08-19T05:22:44;21.50;86.70
26541;DHT22;14206;50.202;10.948;2022-08-19T05:25:13;21.50;86.90
26541;DHT22;14206;50.202;10.948;2022-08-19T05:27:41;21.40;86.70
26541;DHT22;14206;50.202;10.948;2022-08-19T05:30:10;21.50;86.80
26541;DHT22;14206;50.202;10.948;2022-08-19T05:32:39;21.60;86.10
26541;DHT22;14206;50.202;10.948;2022-08-19T05:35:07;21.70;86.10
26541;DHT22;14206;50.202;10.948;2022-08-19T05:37:34;21.80;85.40
26541;DHT22;14206;50.202;10.948;2022-08-19T05:40:01;21.70;85.50
26541;DHT22;14206;50.202;10.948;2022-08-19T05:42:28;21.70;85.90
26541;DHT22;14206;50.202;10.948;2022-08-19T05:44:57;21.70;86.20
26541;DHT22;14206;50.202;10.948;2022-08-19T05:47:24;21.70;86.60
26541;DHT22;14206;50.202;10.948;2022-08-19T05:49:51;21.70;86.90
26541;DHT22;14206;50.202;10.948;2022-08-19T05:52:19;21.60;87.10
26541;DHT22;14206;50.202;10.948;2022-08-19T05:54:52;21.60;87.40
26541;DHT22;14206;50.202;10.948;2022-08-19T05:57:24;21.60;87.50
26541;DHT22;14206;50.202;10.948;2022-08-19T05:59:51;21.50;87.90
26541;DHT22;14206;50.202;10.948;2022-08-19T06:02:25;21.50;87.80
26541;DHT22;14206;50.202;10.948;2022-08-19T06:04:53;21.50;87.60
26541;DHT22;14206;50.202;10.948;2022-08-19T06:07:20;21.50;87.50
26541;DHT22;14206;50.202;10.948;2022-08-19T06:09:47;21.60;87.40
26541;DHT22;14206;50.202;10.948;2022-08-19T06:12:31;21.70;86.90
26541;DHT22;14206;50.202;10.948;2022-08-19T06:15:11;21.70;86.40
26541;DHT22;14206;50.202;10.948;2022-08-19T06:17:38;21.70;86.40
26541;DHT22;14206;50.202;10.948;2022-08-19T06:20:09;21.70;86.60
26541;DHT22;14206;50.202;10.948;2022-08-19T06:22:43;21.70;86.80
26541;DHT22;14206;50.202;10.948;2022-08-19T06:25:12;21.70;87.70
26541;DHT22;14206;50.202;10.948;2022-08-19T06:27:40;21.70;86.90
26541;DHT22;14206;50.202;10.948;2022-08-19T06:30:28;21.80;86.40
26541;DHT22;14206;50.202;10.948;2022-08-19T06:32:55;21.90;86.10
26541;DHT22;14206;50.202;10.948;2022-08-19T06:35:22;22.00;85.60
26541;DHT22;14206;50.202;10.948;2022-08-19T06:37:49;22.00;85.40
26541;DHT22;14206;50.202;10.948;2022-08-19T06:40:16;22.10;85.40
26541;DHT22;14206;50.202;10.948;2022-08-19T06:42:43;22.10;85.00
26541;DHT22;14206;50.202;10.948;2022-08-19T06:45:22;22.20;84.90
26541;DHT22;14206;50.202;10.948;2022-08-19T06:47:51;22.20;84.70
26541;DHT22;14206;50.202;10.948;2022-08-19T06:50:25;22.20;84.60
26541;DHT22;14206;50.202;10.948;2022-08-19T06:52:53;22.20;84.30
26541;DHT22;14206;50.202;10.948;2022-08-19T06:55:21;22.20;84.30
26541;DHT22;14206;50.202;10.948;2022-08-19T06:57:50;22.20;84.20
26541;DHT22;14206;50.202;10.948;2022-08-19T07:00:20;22.20;84.50
26541;DHT22;14206;50.202;10.948;2022-08-19T07:02:47;22.20;84.40
26541;DHT22;14206;50.202;10.948;2022-08-19T07:05:24;22.20;84.40
26541;DHT22;14206;50.202;10.948;2022-08-19T07:07:51;22.20;84.40
26541;DHT22;14206;50.202;10.948;2022-08-19T07:10:18;22.10;84.80
26541;DHT22;14206;50.202;10.948;2022-08-19T07:12:45;22.10;85.30
26541;DHT22;14206;50.202;10.948;2022-08-19T07:15:14;22.20;85.60
26541;DHT22;14206;50.202;10.948;2022-08-19T07:17:42;22.20;85.60
26541;DHT22;14206;50.202;10.948;2022-08-19T07:20:10;22.20;85.80
26541;DHT22;14206;50.202;10.948;2022-08-19T07:22:38;22.20;85.80
26541;DHT22;14206;50.202;10.948;2022-08-19T07:25:07;22.10;86.50
26541;DHT22;14206;50.202;10.948;2022-08-19T07:27:34;22.10;86.70
26541;DHT22;14206;50.202;10.948;2022-08-19T07:30:02;22.00;86.60
26541;DHT22;14206;50.202;10.948;2022-08-19T07:32:29;22.10;86.70
26541;DHT22;14206;50.202;10.948;2022-08-19T07:34:58;22.00;86.80
26541;DHT22;14206;50.202;10.948;2022-08-19T07:37:27;22.10;86.50
26541;DHT22;14206;50.202;10.948;2022-08-19T07:40:00;22.10;86.40
26541;DHT22;14206;50.202;10.948;2022-08-19T07:42:28;22.20;85.90
26541;DHT22;14206;50.202;10.948;2022-08-19T07:44:57;22.30;85.60
26541;DHT22;14206;50.202;10.948;2022-08-19T07:47:25;22.40;85.30
26541;DHT22;14206;50.202;10.948;2022-08-19T07:50:12;22.50;84.50
26541;DHT22;14206;50.202;10.948;2022-08-19T07:52:39;22.60;84.40
26541;DHT22;14206;50.202;10.948;2022-08-19T07:55:08;22.70;84.10
26541;DHT22;14206;50.202;10.948;2022-08-19T07:57:56;22.90;83.40
26541;DHT22;14206;50.202;10.948;2022-08-19T08:00:24;23.10;83.20
26541;DHT22;14206;50.202;10.948;2022-08-19T08:02:52;23.20;82.10
26541;DHT22;14206;50.202;10.948;2022-08-19T08:05:22;23.30;82.00
26541;DHT22;14206;50.202;10.948;2022-08-19T08:08:11;23.40;81.90
26541;DHT22;14206;50.202;10.948;2022-08-19T08:11:16;23.70;81.20
26541;DHT22;14206;50.202;10.948;2022-08-19T08:13:46;24.00;80.60
26541;DHT22;14206;50.202;10.948;2022-08-19T08:16:34;24.20;79.80
26541;DHT22;14206;50.202;10.948;2022-08-19T08:19:13;24.40;79.80
26541;DHT22;14206;50.202;10.948;2022-08-19T08:21:53;24.40;78.50
26541;DHT22;14206;50.202;10.948;2022-08-19T08:24:20;24.40;78.90
26541;DHT22;14206;50.202;10.948;2022-08-19T08:26:47;24.30;79.20
26541;DHT22;14206;50.202;10.948;2022-08-19T08:29:23;24.30;78.90
26541;DHT22;14206;50.202;10.948;2022-08-19T08:31:52;24.30;79.00
26541;DHT22;14206;50.202;10.948;2022-08-19T08:34:25;24.30;79.00
26541;DHT22;14206;50.202;10.948;2022-08-19T08:36:52;24.30;78.80
26541;DHT22;14206;50.202;10.948;2022-08-19T08:39:20;24.30;78.50
26541;DHT22;14206;50.202;10.948;2022-08-19T08:45:02;24.40;79.10
26541;DHT22;14206;50.202;10.948;2022-08-19T08:47:30;24.40;78.80
26541;DHT22;14206;50.202;10.948;2022-08-19T08:49:59;24.40;79.20
26541;DHT22;14206;50.202;10.948;2022-08-19T08:52:34;24.50;79.20
26541;DHT22;14206;50.202;10.948;2022-08-19T08:55:12;24.60;78.80
26541;DHT22;14206;50.202;10.948;2022-08-19T08:58:01;24.70;78.70
26541;DHT22;14206;50.202;10.948;2022-08-19T09:00:41;25.00;77.80
26541;DHT22;14206;50.202;10.948;2022-08-19T09:03:21;25.20;77.90
26541;DHT22;14206;50.202;10.948;2022-08-19T09:06:03;25.50;76.70
26541;DHT22;14206;50.202;10.948;2022-08-19T09:14:56;26.60;74.50
26541;DHT22;14206;50.202;10.948;2022-08-19T09:17:29;27.10;72.00
26541;DHT22;14206;50.202;10.948;2022-08-19T09:20:20;27.30;72.00
26541;DHT22;14206;50.202;10.948;2022-08-19T09:22:48;27.60;72.00
26541;DHT22;14206;50.202;10.948;2022-08-19T09:25:18;27.70;71.90
26541;DHT22;14206;50.202;10.948;2022-08-19T09:27:55;28.10;70.80
26541;DHT22;14206;50.202;10.948;2022-08-19T09:30:40;28.50;69.20
26541;DHT22;14206;50.202;10.948;2022-08-19T09:33:08;28.70;68.10
26541;DHT22;14206;50.202;10.948;2022-08-19T09:35:35;28.80;67.80
26541;DHT22;14206;50.202;10.948;2022-08-19T09:38:19;28.70;67.90
26541;DHT22;14206;50.202;10.948;2022-08-19T09:40:46;28.60;67.50
26541;DHT22;14206;50.202;10.948;2022-08-19T09:43:13;28.40;68.40
26541;DHT22;14206;50.202;10.948;2022-08-19T09:45:59;28.30;68.60
26541;DHT22;14206;50.202;10.948;2022-08-19T09:48:27;28.20;68.80
26541;DHT22;14206;50.202;10.948;2022-08-19T09:50:54;28.10;69.30
26541;DHT22;14206;50.202;10.948;2022-08-19T09:53:21;28.00;69.10
26541;DHT22;14206;50.202;10.948;2022-08-19T09:55:51;27.80;68.40
26541;DHT22;14206;50.202;10.948;2022-08-19T09:58:18;27.60;68.80
26541;DHT22;14206;50.202;10.948;2022-08-19T10:00:52;27.30;69.40
26541;DHT22;14206;50.202;10.948;2022-08-19T10:03:20;27.10;69.40
26541;DHT22;14206;50.202;10.948;2022-08-19T10:05:53;27.00;69.80
26541;DHT22;14206;50.202;10.948;2022-08-19T10:08:27;27.10;70.20
26541;DHT22;14206;50.202;10.948;2022-08-19T10:10:55;27.20;69.70
26541;DHT22;14206;50.202;10.948;2022-08-19T10:13:46;27.20;69.70
26541;DHT22;14206;50.202;10.948;2022-08-19T10:16:16;27.30;69.10
26541;DHT22;14206;50.202;10.948;2022-08-19T10:18:44;27.30;69.00
26541;DHT22;14206;50.202;10.948;2022-08-19T10:21:25;27.20;69.00
26541;DHT22;14206;50.202;10.948;2022-08-19T10:23:59;27.30;69.30
26541;DHT22;14206;50.202;10.948;2022-08-19T10:26:29;27.20;68.90
26541;DHT22;14206;50.202;10.948;2022-08-19T10:28:57;27.00;68.90
26541;DHT22;14206;50.202;10.948;2022-08-19T10:31:27;26.80;69.00
26541;DHT22;14206;50.202;10.948;2022-08-19T10:34:15;26.50;69.60
26541;DHT22;14206;50.202;10.948;2022-08-19T10:36:54;26.30;70.50
26541;DHT22;14206;50.202;10.948;2022-08-19T10:39:22;26.10;71.00
26541;DHT22;14206;50.202;10.948;2022-08-19T10:41:56;26.00;71.00
26541;DHT22;14206;50.202;10.948;2022-08-19T10:44:23;25.90;71.60
26541;DHT22;14206;50.202;10.948;2022-08-19T10:46:58;25.90;71.60
26541;DHT22;14206;50.202;10.948;2022-08-19T10:49:26;25.90;71.80
26541;DHT22;14206;50.202;10.948;2022-08-19T10:51:54;25.90;71.40
26541;DHT22;14206;50.202;10.948;2022-08-19T10:54:46;25.90;71.20
26541;DHT22;14206;50.202;10.948;2022-08-19T10:57:34;26.00;71.60
26541;DHT22;14206;50.202;10.948;2022-08-19T11:00:22;26.20;70.90
26541;DHT22;14206;50.202;10.948;2022-08-19T11:02:50;26.20;70.30
26541;DHT22;14206;50.202;10.948;2022-08-19T11:05:18;26.20;70.30
26541;DHT22;14206;50.202;10.948;2022-08-19T11:07:45;26.10;70.60
26541;DHT22;14206;50.202;10.948;2022-08-19T11:10:13;25.90;71.10
26541;DHT22;14206;50.202;10.948;2022-08-19T11:12:47;25.80;71.10
26541;DHT22;14206;50.202;10.948;2022-08-19T11:15:15;25.70;71.20
26541;DHT22;14206;50.202;10.948;2022-08-19T11:17:43;25.50;71.70
26541;DHT22;14206;50.202;10.948;2022-08-19T11:20:14;25.40;72.10
26541;DHT22;14206;50.202;10.948;2022-08-19T11:22:42;25.20;72.50
26541;DHT22;14206;50.202;10.948;2022-08-19T11:25:10;25.10;72.90
26541;DHT22;14206;50.202;10.948;2022-08-19T11:27:41;25.10;72.90
26541;DHT22;14206;50.202;10.948;2022-08-19T11:30:11;25.20;72.50
26541;DHT22;14206;50.202;10.948;2022-08-19T11:32:40;25.30;72.30
26541;DHT22;14206;50.202;10.948;2022-08-19T11:35:14;25.40;71.40
26541;DHT22;14206;50.202;10.948;2022-08-19T11:37:41;25.40;71.70
26541;DHT22;14206;50.202;10.948;2022-08-19T11:40:08;25.40;71.50
26541;DHT22;14206;50.202;10.948;2022-08-19T11:42:36;25.40;71.10
26541;DHT22;14206;50.202;10.948;2022-08-19T11:45:23;25.40;70.60
26541;DHT22;14206;50.202;10.948;2022-08-19T11:47:50;25.50;69.90
26541;DHT22;14206;50.202;10.948;2022-08-19T11:50:18;25.60;69.80
26541;DHT22;14206;50.202;10.948;2022-08-19T11:52:46;25.90;68.50
26541;DHT22;14206;50.202;10.948;2022-08-19T11:55:14;26.20;68.10
26541;DHT22;14206;50.202;10.948;2022-08-19T11:57:41;26.50;66.80
26541;DHT22;14206;50.202;10.948;2022-08-19T12:00:10;26.70;66.00
26541;DHT22;14206;50.202;10.948;2022-08-19T12:02:40;26.90;64.40
26541;DHT22;14206;50.202;10.948;2022-08-19T12:05:07;27.10;62.90
26541;DHT22;14206;50.202;10.948;2022-08-19T12:07:39;27.30;62.10
26541;DHT22;14206;50.202;10.948;2022-08-19T12:10:07;27.30;60.90
26541;DHT22;14206;50.202;10.948;2022-08-19T12:12:36;27.20;60.70
26541;DHT22;14206;50.202;10.948;2022-08-19T12:15:10;27.10;59.30
26541;DHT22;14206;50.202;10.948;2022-08-19T12:17:37;27.00;58.50
26541;DHT22;14206;50.202;10.948;2022-08-19T12:20:05;27.00;59.00
26541;DHT22;14206;50.202;10.948;2022-08-19T12:22:32;27.00;59.30
26541;DHT22;14206;50.202;10.948;2022-08-19T12:24:59;27.10;58.80
26541;DHT22;14206;50.202;10.948;2022-08-19T12:27:27;27.30;58.80
26541;DHT22;14206;50.202;10.948;2022-08-19T12:30:10;27.40;58.30
26541;DHT22;14206;50.202;10.948;2022-08-19T12:32:38;27.50;58.50
26541;DHT22;14206;50.202;10.948;2022-08-19T12:35:06;27.60;58.60
26541;DHT22;14206;50.202;10.948;2022-08-19T12:37:33;27.70;57.60
26541;DHT22;14206;50.202;10.948;2022-08-19T12:40:01;27.70;57.30
26541;DHT22;14206;50.202;10.948;2022-08-19T12:42:29;27.50;57.90
26541;DHT22;14206;50.202;10.948;2022-08-19T12:44:57;27.40;57.80
26541;DHT22;14206;50.202;10.948;2022-08-19T12:47:24;27.30;58.40
26541;DHT22;14206;50.202;10.948;2022-08-19T12:49:52;27.30;58.60
26541;DHT22;14206;50.202;10.948;2022-08-19T12:52:23;27.30;58.70
26541;DHT22;14206;50.202;10.948;2022-08-19T12:54:52;27.40;58.40
26541;DHT22;14206;50.202;10.948;2022-08-19T12:57:26;27.40;57.80
26541;DHT22;14206;50.202;10.948;2022-08-19T13:00:13;27.40;58.10
26541;DHT22;14206;50.202;10.948;2022-08-19T13:02:43;27.50;57.60
26541;DHT22;14206;50.202;10.948;2022-08-19T13:05:18;27.60;58.10
26541;DHT22;14206;50.202;10.948;2022-08-19T13:07:51;27.90;57.80
26541;DHT22;14206;50.202;10.948;2022-08-19T13:10:20;28.20;57.00
26541;DHT22;14206;50.202;10.948;2022-08-19T13:12:50;28.40;56.30
26541;DHT22;14206;50.202;10.948;2022-08-19T13:15:19;28.40;56.20
26541;DHT22;14206;50.202;10.948;2022-08-19T13:17:51;28.50;56.30
26541;DHT22;14206;50.202;10.948;2022-08-19T13:20:20;28.40;56.20
26541;DHT22;14206;50.202;10.948;2022-08-19T13:22:48;28.20;56.80
26541;DHT22;14206;50.202;10.948;2022-08-19T13:25:16;28.00;57.70
26541;DHT22;14206;50.202;10.948;2022-08-19T13:27:47;27.90;57.90
26541;DHT22;14206;50.202;10.948;2022-08-19T13:30:15;27.80;57.90
26541;DHT22;14206;50.202;10.948;2022-08-19T13:33:01;27.70;57.90
26541;DHT22;14206;50.202;10.948;2022-08-19T13:35:48;27.60;57.70
26541;DHT22;14206;50.202;10.948;2022-08-19T13:38:18;27.60;57.70
26541;DHT22;14206;50.202;10.948;2022-08-19T13:40:48;27.60;57.50
26541;DHT22;14206;50.202;10.948;2022-08-19T13:43:18;27.60;58.40
26541;DHT22;14206;50.202;10.948;2022-08-19T13:45:53;27.50;58.00
26541;DHT22;14206;50.202;10.948;2022-08-19T13:48:25;27.50;58.60
26541;DHT22;14206;50.202;10.948;2022-08-19T13:50:53;27.40;57.90
26541;DHT22;14206;50.202;10.948;2022-08-19T13:53:20;27.30;58.40
26541;DHT22;14206;50.202;10.948;2022-08-19T13:55:47;27.20;58.50
26541;DHT22;14206;50.202;10.948;2022-08-19T13:58:15;27.20;58.90
26541;DHT22;14206;50.202;10.948;2022-08-19T14:00:44;27.10;58.60
26541;DHT22;14206;50.202;10.948;2022-08-19T14:03:12;27.10;58.80
26541;DHT22;14206;50.202;10.948;2022-08-19T14:05:44;26.90;58.90
26541;DHT22;14206;50.202;10.948;2022-08-19T14:08:13;26.70;59.20
26541;DHT22;14206;50.202;10.948;2022-08-19T14:10:41;26.60;59.70
26541;DHT22;14206;50.202;10.948;2022-08-19T14:13:14;26.50;59.90
26541;DHT22;14206;50.202;10.948;2022-08-19T14:15:41;26.40;60.90
26541;DHT22;14206;50.202;10.948;2022-08-19T14:18:08;26.30;60.80
26541;DHT22;14206;50.202;10.948;2022-08-19T14:20:35;26.20;60.90
26541;DHT22;14206;50.202;10.948;2022-08-19T14:23:03;26.10;61.10
26541;DHT22;14206;50.202;10.948;2022-08-19T14:25:33;26.00;61.50
26541;DHT22;14206;50.202;10.948;2022-08-19T14:28:01;26.10;61.30
26541;DHT22;14206;50.202;10.948;2022-08-19T14:30:31;26.00;61.70
26541;DHT22;14206;50.202;10.948;2022-08-19T14:33:00;26.10;61.60
26541;DHT22;14206;50.202;10.948;2022-08-19T14:35:28;26.20;61.20
26541;DHT22;14206;50.202;10.948;2022-08-19T14:37:56;26.20;61.60
26541;DHT22;14206;50.202;10.948;2022-08-19T14:40:26;26.10;61.60
26541;DHT22;14206;50.202;10.948;2022-08-19T14:42:56;26.10;61.70
26541;DHT22;14206;50.202;10.948;2022-08-19T14:45:27;26.20;61.90
26541;DHT22;14206;50.202;10.948;2022-08-19T14:47:54;26.20;62.00
26541;DHT22;14206;50.202;10.948;2022-08-19T14:50:22;26.30;61.50
26541;DHT22;14206;50.202;10.948;2022-08-19T14:52:49;26.40;61.10
26541;DHT22;14206;50.202;10.948;2022-08-19T14:55:17;26.30;61.10
26541;DHT22;14206;50.202;10.948;2022-08-19T14:57:45;26.30;61.50
26541;DHT22;14206;50.202;10.948;2022-08-19T15:00:13;26.30;61.60
26541;DHT22;14206;50.202;10.948;2022-08-19T15:02:41;26.30;61.00
26541;DHT22;14206;50.202;10.948;2022-08-19T15:05:08;26.20;61.00
26541;DHT22;14206;50.202;10.948;2022-08-19T15:07:36;26.20;61.30
26541;DHT22;14206;50.202;10.948;2022-08-19T15:10:04;26.10;61.20
26541;DHT22;14206;50.202;10.948;2022-08-19T15:12:37;26.00;60.90
26541;DHT22;14206;50.202;10.948;2022-08-19T15:15:11;25.90;61.00
26541;DHT22;14206;50.202;10.948;2022-08-19T15:17:42;25.70;61.10
26541;DHT22;14206;50.202;10.948;2022-08-19T15:20:16;25.60;61.30
26541;DHT22;14206;50.202;10.948;2022-08-19T15:22:44;25.50;61.70
26541;DHT22;14206;50.202;10.948;2022-08-19T15:25:13;25.40;61.60
26541;DHT22;14206;50.202;10.948;2022-08-19T15:27:41;25.20;61.80
26541;DHT22;14206;50.202;10.948;2022-08-19T15:30:10;25.10;62.50
26541;DHT22;14206;50.202;10.948;2022-08-19T15:32:38;25.00;62.20
26541;DHT22;14206;50.202;10.948;2022-08-19T15:35:06;25.00;62.60
26541;DHT22;14206;50.202;10.948;2022-08-19T15:37:33;24.90;62.70
26541;DHT22;14206;50.202;10.948;2022-08-19T15:40:05;24.90;62.50
26541;DHT22;14206;50.202;10.948;2022-08-19T15:42:35;24.80;63.20
26541;DHT22;14206;50.202;10.948;2022-08-19T15:45:06;24.70;62.50
26541;DHT22;14206;50.202;10.948;2022-08-19T15:47:33;24.70;62.90
26541;DHT22;14206;50.202;10.948;2022-08-19T15:50:20;24.60;62.50